Terminal Aerodrome Forecast
Issued by NWS

Home | Current Version | Previous Version | Graphics & Text | Print | Product List | Glossary On
Versions: 1 2 3 4 5 6 7 8 9 10 11 12 13 14 15 16
000
FTUS43 KICT 311139
TAFCNU
TAF
KCNU 311139Z 3112/0112 13009KT P6SM BKN070
     FM311800 17012KT 6SM -RA SCT015 BKN050
     FM312100 17011KT 4SM -RA BR SCT007 BKN015
     FM010600 13008KT 1 1/2SM -RA BKN004 OVC007=

USA.gov is the U.S. government's official web portal to all federal, state and local government web resources and services.